Time;durP1;ratioP1;P1;durP2;ratioP2;P2;SDS_P1;SDS_P2;PMS_P1;PMS_P2;Temp;Humidity;BMP_temperature;BMP_pressure;BME280_temperature;BME280_humidity;BME280_pressure;Samples;Min_cycle;Max_cycle;Signal;HPM_P1;HPM_P2
2023/05/22 00:00:44;;;;;;;;;;;;;;;19.27;100.00;99628.38;5071490;28;19924;-62
2023/05/22 00:03:10;;;;;;;;;;;;;;;19.27;100.00;99631.06;5072728;28;20359;-62
2023/05/22 00:05:37;;;;;;;;;;;;;;;19.25;100.00;99630.31;5070793;28;19970;-62
2023/05/22 00:08:03;;;;;;;;;;;;;;;19.19;100.00;99628.09;5070918;28;19955;-62
2023/05/22 00:10:28;;;;;;;;;;;;;;;19.10;100.00;99631.44;5069755;28;19962;-62
2023/05/22 00:12:54;;;;;;;;;;;;;;;19.05;100.00;99633.63;5070374;28;19930;-62
2023/05/22 00:15:19;;;;;;;;;;;;;;;18.94;100.00;99633.53;5070308;28;19912;-62
2023/05/22 00:17:46;;;;;;;;;;;;;;;18.89;100.00;99633.00;5059291;28;20062;-62
2023/05/22 00:20:11;;;;;;;;;;;;;;;18.86;100.00;99633.25;5062490;28;19916;-63
2023/05/22 00:22:37;;;;;;;;;;;;;;;18.84;100.00;99629.78;5069946;28;20198;-62
2023/05/22 00:25:03;;;;;;;;;;;;;;;18.86;100.00;99633.25;5070872;28;20320;-63
2023/05/22 00:27:28;;;;;;;;;;;;;;;18.87;100.00;99629.56;5070532;28;19919;-61
2023/05/22 00:29:53;;;;;;;;;;;;;;;18.82;100.00;99637.97;5069795;28;19916;-62
2023/05/22 00:32:18;;;;;;;;;;;;;;;18.92;100.00;99630.97;5071021;28;19912;-61
2023/05/22 00:34:44;;;;;;;;;;;;;;;18.96;100.00;99639.69;5069397;28;19926;-62
2023/05/22 00:37:09;;;;;;;;;;;;;;;18.97;100.00;99644.97;5070287;28;19912;-62
2023/05/22 00:39:35;;;;;;;;;;;;;;;19.00;100.00;99641.16;5070290;28;20014;-62
2023/05/22 00:42:00;;;;;;;;;;;;;;;19.02;100.00;99636.53;5068949;28;19922;-61
2023/05/22 00:44:26;;;;;;;;;;;;;;;19.03;100.00;99635.56;5055577;28;19920;-61
2023/05/22 00:46:51;;;;;;;;;;;;;;;19.03;100.00;99633.72;5053861;28;20331;-61
2023/05/22 00:49:16;;;;;;;;;;;;;;;19.01;100.00;99640.22;5051018;28;20022;-62
2023/05/22 00:51:41;;;;;;;;;;;;;;;18.98;100.00;99638.59;5072562;28;19913;-62
2023/05/22 00:54:08;;;;;;;;;;;;;;;18.98;100.00;99638.59;5072334;28;20376;-62
2023/05/22 00:56:34;;;;;;;;;;;;;;;18.98;100.00;99645.81;5054847;28;20348;-62
2023/05/22 00:58:59;;;;;;;;;;;;;;;18.97;100.00;99642.28;5060565;28;19951;-62
2023/05/22 01:01:25;;;;;;;;;;;;;;;18.99;100.00;99650.25;4774674;28;19916;-57
2023/05/22 01:03:50;;;;;;;;;;;;;;;19.00;100.00;99657.34;5055273;28;19966;-57
2023/05/22 01:06:20;;;;;;;;;;;;;;;18.99;100.00;99655.63;5035274;28;20293;-58
2023/05/22 01:08:46;;;;;;;;;;;;;;;18.97;100.00;99653.06;5072909;28;20007;-58
2023/05/22 01:11:21;;;;;;;;;;;;;;;18.95;100.00;99652.28;5072228;28;19999;-57
2023/05/22 01:14:07;;;;;;;;;;;;;;;18.94;100.00;99663.19;5072929;28;19967;-58
2023/05/22 01:16:45;;;;;;;;;;;;;;;18.95;100.00;99659.50;5071958;28;19920;-58
2023/05/22 01:19:24;;;;;;;;;;;;;;;18.94;100.00;99657.81;5057454;28;20364;-58
2023/05/22 01:22:16;;;;;;;;;;;;;;;18.89;100.00;99665.34;5071106;28;19977;-58
2023/05/22 01:24:51;;;;;;;;;;;;;;;18.85;100.00;99663.84;5040154;28;19916;-58
2023/05/22 01:27:17;;;;;;;;;;;;;;;18.79;100.00;99664.28;5071855;28;19908;-57
2023/05/22 01:29:47;;;;;;;;;;;;;;;18.69;100.00;99668.59;5070323;28;19966;-57
2023/05/22 01:32:14;;;;;;;;;;;;;;;18.65;100.00;99664.44;5071469;28;19993;-58
2023/05/22 01:34:42;;;;;;;;;;;;;;;18.66;100.00;99668.84;5071948;28;19908;-57
2023/05/22 01:37:08;;;;;;;;;;;;;;;18.68;100.00;99672.28;5072628;28;19920;-57
2023/05/22 01:39:35;;;;;;;;;;;;;;;18.71;100.00;99672.06;5072408;28;20432;-57
2023/05/22 01:42:01;;;;;;;;;;;;;;;18.74;100.00;99671.84;5071453;28;19916;-57
2023/05/22 01:44:26;;;;;;;;;;;;;;;18.77;100.00;99677.00;5072335;28;20302;-57
2023/05/22 01:46:51;;;;;;;;;;;;;;;18.77;100.00;99680.56;5071644;28;20328;-57
2023/05/22 01:49:17;;;;;;;;;;;;;;;18.79;100.00;99681.31;5072244;28;20284;-57
2023/05/22 01:51:47;;;;;;;;;;;;;;;18.76;100.00;99680.69;5072114;28;19951;-57
2023/05/22 01:54:31;;;;;;;;;;;;;;;18.79;100.00;99680.47;5070900;28;19912;-57
2023/05/22 01:57:06;;;;;;;;;;;;;;;18.84;100.00;99683.69;5072190;28;19916;-57
2023/05/22 01:59:47;;;;;;;;;;;;;;;18.86;100.00;99687.13;5071091;28;20716;-57
2023/05/22 02:02:14;;;;;;;;;;;;;;;18.90;100.00;99688.63;5070602;28;19920;-57
2023/05/22 02:04:42;;;;;;;;;;;;;;;18.91;100.00;99684.97;5071255;28;19924;-57
2023/05/22 02:07:09;;;;;;;;;;;;;;;18.91;100.00;99690.38;5071668;28;19974;-57
2023/05/22 02:09:36;;;;;;;;;;;;;;;18.92;100.00;99694.78;5071812;28;19912;-58
2023/05/22 02:12:01;;;;;;;;;;;;;;;18.91;100.00;99684.97;5070856;28;19913;-56
2023/05/22 02:14:28;;;;;;;;;;;;;;;18.92;100.00;99686.69;5070980;28;19923;-57
2023/05/22 02:16:53;;;;;;;;;;;;;;;18.94;100.00;99692.84;5070072;28;20388;-57
2023/05/22 02:19:19;;;;;;;;;;;;;;;18.92;100.00;99698.34;5055924;28;19908;-57
2023/05/22 02:21:44;;;;;;;;;;;;;;;18.91;100.00;99698.47;5070887;28;19912;-57
2023/05/22 02:24:09;;;;;;;;;;;;;;;18.92;100.00;99703.75;5071591;28;19922;-57
2023/05/22 02:26:36;;;;;;;;;;;;;;;18.93;100.00;99699.22;5071553;28;19912;-57
2023/05/22 02:29:01;;;;;;;;;;;;;;;18.90;100.00;99702.97;5070583;28;20356;-57
2023/05/22 02:31:26;;;;;;;;;;;;;;;18.88;100.00;99701.38;5071310;28;19935;-57
2023/05/22 02:33:51;;;;;;;;;;;;;;;18.88;100.00;99698.69;5071772;28;20379;-57
2023/05/22 02:36:17;;;;;;;;;;;;;;;18.89;100.00;99697.69;5071678;28;19908;-56
2023/05/22 02:38:43;;;;;;;;;;;;;;;18.89;100.00;99701.25;5070132;28;19920;-57
2023/05/22 02:41:08;;;;;;;;;;;;;;;18.88;100.00;99696.00;5071088;28;19920;-57
2023/05/22 02:43:33;;;;;;;;;;;;;;;18.86;100.00;99693.38;5070645;28;20393;-57
2023/05/22 02:45:58;;;;;;;;;;;;;;;18.85;100.00;99697.06;5071154;28;19912;-57
2023/05/22 02:48:24;;;;;;;;;;;;;;;18.86;100.00;99696.06;5070439;28;20121;-57
2023/05/22 02:50:49;;;;;;;;;;;;;;;18.86;100.00;99697.91;5071257;28;19919;-57
2023/05/22 02:53:16;;;;;;;;;;;;;;;18.85;100.00;99688.09;5071291;28;19991;-56
2023/05/22 02:55:41;;;;;;;;;;;;;;;18.78;100.00;99687.66;5070668;28;19944;-56
2023/05/22 02:58:10;;;;;;;;;;;;;;;18.79;100.00;99688.53;5070746;28;20363;-57
2023/05/22 03:00:38;;;;;;;;;;;;;;;18.78;100.00;99684.97;5069991;28;20030;-57
2023/05/22 03:03:04;;;;;;;;;;;;;;;18.78;100.00;99684.13;5070475;28;19931;-57
2023/05/22 03:05:30;;;;;;;;;;;;;;;18.75;100.00;99684.31;5071014;28;19912;-58
2023/05/22 03:07:56;;;;;;;;;;;;;;;18.70;100.00;99681.13;5069770;28;19940;-57
2023/05/22 03:10:21;;;;;;;;;;;;;;;18.64;100.00;99671.63;5070238;28;20001;-57
2023/05/22 03:12:47;;;;;;;;;;;;;;;18.63;100.00;99675.31;5064450;28;19923;-57
2023/05/22 03:15:12;;;;;;;;;;;;;;;18.60;100.00;99682.75;5069730;28;19909;-57
2023/05/22 03:17:37;;;;;;;;;;;;;;;18.55;100.00;99684.91;5068525;28;19912;-57
2023/05/22 03:20:04;;;;;;;;;;;;;;;18.50;100.00;99684.34;5069494;28;19920;-57
2023/05/22 03:22:29;;;;;;;;;;;;;;;18.47;100.00;99684.59;5068722;28;19908;-56
2023/05/22 03:24:54;;;;;;;;;;;;;;;18.42;100.00;99681.34;5069970;28;19927;-56
2023/05/22 03:27:20;;;;;;;;;;;;;;;18.40;100.00;99677.88;5069435;28;19909;-57
2023/05/22 03:29:45;;;;;;;;;;;;;;;18.35;100.00;99681.72;5061183;28;19912;-57
2023/05/22 03:32:10;;;;;;;;;;;;;;;18.35;100.00;99686.25;5067995;28;19908;-56
2023/05/22 03:34:35;;;;;;;;;;;;;;;18.34;100.00;99688.09;5069725;28;19924;-57
2023/05/22 03:37:01;;;;;;;;;;;;;;;18.30;100.00;99691.09;5070200;28;19959;-57
2023/05/22 03:39:26;;;;;;;;;;;;;;;18.26;100.00;99685.06;5070312;28;20276;-56
2023/05/22 03:41:51;;;;;;;;;;;;;;;18.22;100.00;99685.34;5060331;28;19982;-56
2023/05/22 03:44:17;;;;;;;;;;;;;;;18.17;100.00;99688.38;5068847;28;20268;-56
2023/05/22 03:46:42;;;;;;;;;;;;;;;18.11;100.00;99687.94;5069150;28;19916;-57
2023/05/22 03:49:07;;;;;;;;;;;;;;;18.08;100.00;99694.41;5068466;28;20356;-56
2023/05/22 03:51:32;;;;;;;;;;;;;;;18.08;100.00;99694.41;5067173;28;19923;-57
2023/05/22 03:53:58;;;;;;;;;;;;;;;18.07;100.00;99692.66;5069498;28;19951;-57
2023/05/22 03:56:23;;;;;;;;;;;;;;;18.05;100.00;99694.63;5070154;28;20375;-57
2023/05/22 03:58:49;;;;;;;;;;;;;;;18.05;100.00;99688.38;5069820;28;20283;-57
2023/05/22 04:01:15;;;;;;;;;;;;;;;18.01;100.00;99695.78;5069080;28;19927;-58
2023/05/22 04:03:41;;;;;;;;;;;;;;;18.04;100.00;99692.00;5069676;28;19908;-57
2023/05/22 04:06:06;;;;;;;;;;;;;;;18.05;100.00;99683.84;5068768;28;19973;-58
2023/05/22 04:08:31;;;;;;;;;;;;;;;18.09;100.00;99681.78;5069019;28;19927;-57
2023/05/22 04:10:57;;;;;;;;;;;;;;;18.12;100.00;99685.13;5069871;28;19912;-56
2023/05/22 04:13:22;;;;;;;;;;;;;;;18.17;100.00;99685.69;5069066;28;19917;-57
2023/05/22 04:15:49;;;;;;;;;;;;;;;18.20;100.00;99676.53;5067171;28;19927;-57
2023/05/22 04:18:14;;;;;;;;;;;;;;;18.24;100.00;99684.31;5068256;28;19949;-57
2023/05/22 04:20:39;;;;;;;;;;;;;;;18.27;100.00;99686.78;5069515;28;19934;-57
2023/05/22 04:23:06;;;;;;;;;;;;;;;18.28;100.00;99685.81;5068435;28;20256;-57
2023/05/22 04:25:33;;;;;;;;;;;;;;;18.33;100.00;99686.34;5069004;28;19953;-57
2023/05/22 04:27:58;;;;;;;;;;;;;;;18.40;100.00;99688.66;5069758;28;20021;-56
2023/05/22 04:30:24;;;;;;;;;;;;;;;18.41;100.00;99685.84;5069167;28;19971;-57
2023/05/22 04:32:49;;;;;;;;;;;;;;;18.45;100.00;99694.59;5068625;28;19919;-57
2023/05/22 04:35:17;;;;;;;;;;;;;;;18.48;100.00;99692.56;5069514;28;19912;-57
2023/05/22 04:37:44;;;;;;;;;;;;;;;18.53;100.00;99695.78;5068962;28;20302;-57
2023/05/22 04:40:10;;;;;;;;;;;;;;;18.58;100.00;99692.75;5069593;28;19962;-57
2023/05/22 04:42:36;;;;;;;;;;;;;;;18.64;100.00;99693.19;5068199;28;19923;-57
2023/05/22 04:45:01;;;;;;;;;;;;;;;18.72;100.00;99696.19;5069381;28;19908;-57
2023/05/22 04:47:30;;;;;;;;;;;;;;;18.79;100.00;99700.19;5069354;28;19912;-57
2023/05/22 04:49:56;;;;;;;;;;;;;;;18.84;100.00;99706.13;5068368;28;19916;-57
2023/05/22 04:52:21;;;;;;;;;;;;;;;18.87;100.00;99699.63;5068217;28;19916;-57
2023/05/22 04:54:46;;;;;;;;;;;;;;;18.77;100.00;99703.94;5069511;28;20007;-57
2023/05/22 04:57:12;;;;;;;;;;;;;;;18.88;100.00;99714.84;5069955;28;19966;-56
2023/05/22 04:59:37;;;;;;;;;;;;;;;18.85;100.00;99710.53;5067921;28;19917;-58
2023/05/22 05:02:03;;;;;;;;;;;;;;;18.72;100.00;99712.38;5068389;28;20648;-58
2023/05/22 05:04:28;;;;;;;;;;;;;;;18.79;100.00;99712.78;5069245;28;20428;-57
2023/05/22 05:06:54;;;;;;;;;;;;;;;18.87;100.00;99711.28;5067658;28;20026;-58
2023/05/22 05:09:19;;;;;;;;;;;;;;;19.01;100.00;99715.69;5068107;28;19912;-56
2023/05/22 05:11:44;;;;;;;;;;;;;;;19.14;100.00;99719.25;5067277;28;19912;-57
2023/05/22 05:14:10;;;;;;;;;;;;;;;19.27;100.00;99709.28;5064624;28;19970;-57
2023/05/22 05:16:35;;;;;;;;;;;;;;;19.37;100.00;99713.06;5049493;28;20362;-57
2023/05/22 05:19:00;;;;;;;;;;;;;;;19.38;100.00;99714.78;5066998;28;19923;-57
2023/05/22 05:21:26;;;;;;;;;;;;;;;19.43;100.00;99726.09;5068297;28;19916;-57
2023/05/22 05:23:52;;;;;;;;;;;;;;;19.41;99.07;99715.41;5069256;28;19919;-57
2023/05/22 05:26:17;;;;;;;;;;;;;;;19.41;98.87;99719.94;5068180;28;19916;-58
2023/05/22 05:28:42;;;;;;;;;;;;;;;19.40;98.71;99715.53;5069195;28;19912;-58
2023/05/22 05:31:08;;;;;;;;;;;;;;;19.44;98.17;99714.31;5068996;28;20439;-57
2023/05/22 05:33:33;;;;;;;;;;;;;;;19.44;98.06;99719.72;5068066;28;19916;-57
2023/05/22 05:35:58;;;;;;;;;;;;;;;19.45;98.89;99721.47;5068777;28;19912;-56
2023/05/22 05:38:24;;;;;;;;;;;;;;;19.49;99.05;99720.25;5067651;28;19920;-57
2023/05/22 05:40:49;;;;;;;;;;;;;;;19.58;98.25;99716.88;5068787;28;20380;-62
2023/05/22 05:43:14;;;;;;;;;;;;;;;19.67;97.54;99726.97;5079108;28;19954;-61
2023/05/22 05:45:40;;;;;;;;;;;;;;;19.76;97.73;99723.59;5080257;28;20005;-60
2023/05/22 05:48:06;;;;;;;;;;;;;;;19.80;97.35;99725.13;5079318;28;19928;-60
2023/05/22 05:50:31;;;;;;;;;;;;;;;19.87;96.63;99725.50;5078755;28;20017;-61
2023/05/22 05:52:57;;;;;;;;;;;;;;;19.99;96.25;99738.06;5078841;28;19916;-61
2023/05/22 05:55:22;;;;;;;;;;;;;;;20.06;95.26;99740.22;5078795;28;19913;-62
2023/05/22 05:57:47;;;;;;;;;;;;;;;20.20;94.31;99739.16;5077160;28;20388;-62
2023/05/22 06:00:13;;;;;;;;;;;;;;;20.25;93.14;99737.84;5077121;28;19923;-63
2023/05/22 06:02:38;;;;;;;;;;;;;;;20.41;92.09;99729.44;5077945;28;19920;-61
2023/05/22 06:05:04;;;;;;;;;;;;;;;20.56;91.22;99736.38;5076751;28;19920;-62
2023/05/22 06:07:30;;;;;;;;;;;;;;;20.78;90.38;99742.66;5078834;28;19992;-62
2023/05/22 06:09:55;;;;;;;;;;;;;;;20.83;88.80;99745.88;5078429;28;19931;-62
2023/05/22 06:12:21;;;;;;;;;;;;;;;21.00;87.78;99743.69;5078061;28;19916;-62
2023/05/22 06:14:46;;;;;;;;;;;;;;;21.10;87.23;99747.41;5077415;28;19908;-62
2023/05/22 06:17:12;;;;;;;;;;;;;;;21.33;87.37;99749.13;5068298;28;19913;-62
2023/05/22 06:19:37;;;;;;;;;;;;;;;21.45;85.74;99750.84;5078249;28;19939;-62
2023/05/22 06:22:02;;;;;;;;;;;;;;;21.65;85.38;99744.63;5078778;28;19952;-62
2023/05/22 06:24:28;;;;;;;;;;;;;;;21.78;83.47;99753.50;5074881;28;19908;-62
2023/05/22 06:26:53;;;;;;;;;;;;;;;21.95;82.39;99758.38;5071230;28;19958;-62
2023/05/22 06:29:18;;;;;;;;;;;;;;;22.07;81.06;99758.22;5079063;28;19962;-62
2023/05/22 06:31:43;;;;;;;;;;;;;;;22.14;79.89;99764.00;5064776;28;19932;-62
2023/05/22 06:34:09;;;;;;;;;;;;;;;22.31;79.43;99760.72;5062235;28;19919;-62
2023/05/22 06:36:34;;;;;;;;;;;;;;;22.29;78.18;99762.69;5082061;28;19923;-61
2023/05/22 06:39:00;;;;;;;;;;;;;;;22.33;78.37;99764.16;5082069;28;19912;-61
2023/05/22 06:41:26;;;;;;;;;;;;;;;22.29;77.40;99765.41;5078030;28;19920;-62
2023/05/22 06:43:51;;;;;;;;;;;;;;;22.31;77.17;99766.13;5076971;28;19916;-61
2023/05/22 06:46:16;;;;;;;;;;;;;;;22.30;76.99;99769.84;5076319;28;19916;-61
2023/05/22 06:48:41;;;;;;;;;;;;;;;22.29;77.36;99770.81;5083355;28;19913;-60
2023/05/22 06:51:10;;;;;;;;;;;;;;;22.25;77.90;99766.66;5066603;28;19913;-60
2023/05/22 06:53:35;;;;;;;;;;;;;;;22.09;77.70;99766.25;5073526;28;19912;-61
2023/05/22 06:56:00;;;;;;;;;;;;;;;22.13;78.81;99770.41;5065662;28;19981;-61
2023/05/22 06:58:25;;;;;;;;;;;;;;;22.17;78.88;99763.75;5080649;28;19912;-60
2023/05/22 07:00:52;;;;;;;;;;;;;;;22.26;78.70;99767.53;5082884;28;19947;-61
2023/05/22 07:03:18;;;;;;;;;;;;;;;22.30;78.48;99763.56;5083152;28;20409;-61
2023/05/22 07:05:43;;;;;;;;;;;;;;;22.33;78.75;99766.88;5083386;28;19912;-61
2023/05/22 07:08:09;;;;;;;;;;;;;;;22.27;77.63;99770.13;5083749;28;19912;-61
2023/05/22 07:10:34;;;;;;;;;;;;;;;22.48;76.24;99762.88;5082728;28;19951;-61
2023/05/22 07:12:59;;;;;;;;;;;;;;;22.77;75.07;99763.97;5083248;28;20432;-61
2023/05/22 07:15:25;;;;;;;;;;;;;;;23.12;74.08;99774.44;5082310;28;21142;-61
2023/05/22 07:17:50;;;;;;;;;;;;;;;23.49;72.67;99772.09;5083523;28;19934;-61
2023/05/22 07:20:15;;;;;;;;;;;;;;;23.78;70.05;99767.59;5082879;28;19913;-62
2023/05/22 07:22:40;;;;;;;;;;;;;;;23.97;68.08;99773.09;5079652;28;19996;-62
2023/05/22 07:25:06;;;;;;;;;;;;;;;24.07;67.97;99779.44;5082598;28;19966;-62
2023/05/22 07:27:31;;;;;;;;;;;;;;;24.21;67.53;99781.75;5082384;28;19916;-61
2023/05/22 07:29:56;;;;;;;;;;;;;;;24.53;66.96;99782.31;5084323;28;19922;-61
2023/05/22 07:32:22;;;;;;;;;;;;;;;24.74;65.68;99769.47;5083012;28;20274;-62
2023/05/22 07:34:47;;;;;;;;;;;;;;;25.06;66.22;99780.84;5080949;28;19916;-61
2023/05/22 07:37:15;;;;;;;;;;;;;;;25.23;64.59;99777.38;5080627;28;20210;-60
2023/05/22 07:39:41;;;;;;;;;;;;;;;25.52;62.33;99780.88;5078513;28;19923;-61
2023/05/22 07:42:06;;;;;;;;;;;;;;;25.85;60.95;99774.81;5073820;28;19916;-61
2023/05/22 07:44:32;;;;;;;;;;;;;;;26.10;62.43;99777.84;5074247;28;19923;-61
2023/05/22 07:46:58;;;;;;;;;;;;;;;26.54;60.52;99777.78;5074301;28;19983;-61
2023/05/22 07:49:23;;;;;;;;;;;;;;;26.80;58.47;99772.44;5076766;28;19912;-62
2023/05/22 07:51:49;;;;;;;;;;;;;;;26.63;58.73;99781.47;5078012;28;19916;-62
2023/05/22 07:54:14;;;;;;;;;;;;;;;26.73;60.17;99776.81;5076958;28;19927;-62
2023/05/22 07:56:40;;;;;;;;;;;;;;;26.81;57.49;99776.88;5059030;28;20295;-62
2023/05/22 07:59:06;;;;;;;;;;;;;;;26.56;57.53;99781.22;5076962;28;19908;-62
2023/05/22 08:01:31;;;;;;;;;;;;;;;26.51;57.73;99790.88;5075580;28;19979;-61
2023/05/22 08:03:57;;;;;;;;;;;;;;;26.48;58.60;99793.94;5077420;28;19919;-62
2023/05/22 08:06:22;;;;;;;;;;;;;;;26.33;58.32;99779.97;5076707;28;20023;-62
2023/05/22 08:08:47;;;;;;;;;;;;;;;26.14;59.26;99784.72;5077974;28;19932;-62
2023/05/22 08:11:16;;;;;;;;;;;;;;;25.83;59.31;99786.91;5077709;28;19995;-61
2023/05/22 08:13:41;;;;;;;;;;;;;;;25.82;60.01;99791.50;5075657;28;19916;-61
2023/05/22 08:16:06;;;;;;;;;;;;;;;25.84;61.19;99786.75;5076668;28;19908;-61
2023/05/22 08:18:31;;;;;;;;;;;;;;;25.79;61.54;99789.06;5075411;28;19909;-62
2023/05/22 08:20:58;;;;;;;;;;;;;;;25.94;62.80;99786.69;5074964;28;20381;-62
2023/05/22 08:23:24;;;;;;;;;;;;;;;25.87;61.44;99785.56;5075452;28;19916;-61
2023/05/22 08:25:49;;;;;;;;;;;;;;;25.98;62.60;99784.50;5075063;28;19916;-61
2023/05/22 08:28:15;;;;;;;;;;;;;;;25.98;61.67;99780.75;5077048;28;19916;-62
2023/05/22 08:30:40;;;;;;;;;;;;;;;26.01;63.13;99784.22;5076766;28;20244;-61
2023/05/22 08:33:05;;;;;;;;;;;;;;;26.02;60.94;99777.75;5066478;28;19923;-61
2023/05/22 08:35:30;;;;;;;;;;;;;;;25.88;61.96;99782.69;5075318;28;20003;-61
2023/05/22 08:37:56;;;;;;;;;;;;;;;25.89;62.31;99781.69;5075763;28;20002;-61
2023/05/22 08:40:22;;;;;;;;;;;;;;;25.84;62.88;99777.69;5074264;28;19916;-62
2023/05/22 08:42:50;;;;;;;;;;;;;;;25.79;63.95;99780.03;5076017;28;20480;-61
2023/05/22 08:45:16;;;;;;;;;;;;;;;25.66;64.97;99769.50;5076330;28;20365;-62
2023/05/22 08:47:42;;;;;;;;;;;;;;;25.63;64.07;99780.66;5076340;28;19986;-61
2023/05/22 08:50:08;;;;;;;;;;;;;;;25.73;65.04;99775.19;5076434;28;19908;-61
2023/05/22 08:52:39;;;;;;;;;;;;;;;25.86;64.34;99773.81;5075610;28;19927;-61
2023/05/22 08:55:05;;;;;;;;;;;;;;;25.88;63.36;99779.13;5055949;28;19959;-61
2023/05/22 08:57:31;;;;;;;;;;;;;;;25.81;63.29;99778.84;5056576;28;20370;-62
2023/05/22 08:59:56;;;;;;;;;;;;;;;25.98;63.16;99773.63;5070431;28;19955;-62
2023/05/22 09:02:22;;;;;;;;;;;;;;;26.16;61.23;99775.38;5075139;28;20011;-62
2023/05/22 09:04:47;;;;;;;;;;;;;;;26.55;59.64;99767.75;5076692;28;19908;-61
2023/05/22 09:07:13;;;;;;;;;;;;;;;26.91;57.49;99778.50;5077163;28;19916;-61
2023/05/22 09:09:38;;;;;;;;;;;;;;;27.37;57.78;99777.31;5078697;28;20067;-61
2023/05/22 09:12:08;;;;;;;;;;;;;;;27.81;56.24;99767.94;5081638;28;19908;-61
2023/05/22 09:14:43;;;;;;;;;;;;;;;27.89;54.96;99768.00;5083522;28;19927;-61
2023/05/22 09:17:10;;;;;;;;;;;;;;;27.78;56.13;99771.00;5082764;28;19915;-61
2023/05/22 09:19:36;;;;;;;;;;;;;;;27.63;55.95;99772.66;5081906;28;19942;-61
2023/05/22 09:22:03;;;;;;;;;;;;;;;27.36;54.64;99770.13;5082826;28;19916;-60
2023/05/22 09:24:28;;;;;;;;;;;;;;;27.36;57.09;99775.59;5067672;28;20249;-61
2023/05/22 09:26:53;;;;;;;;;;;;;;;27.54;57.96;99773.66;5079318;28;19916;-61
2023/05/22 09:29:18;;;;;;;;;;;;;;;27.67;56.91;99757.66;5079493;28;19923;-61
2023/05/22 09:31:44;;;;;;;;;;;;;;;27.82;55.85;99761.47;5084351;28;19970;-61
2023/05/22 09:34:09;;;;;;;;;;;;;;;27.86;56.36;99768.31;5071564;28;19912;-61
2023/05/22 09:36:35;;;;;;;;;;;;;;;27.72;55.03;99763.47;5081604;28;19951;-61
2023/05/22 09:39:01;;;;;;;;;;;;;;;27.98;56.74;99767.03;5080705;28;19912;-61
2023/05/22 09:41:29;;;;;;;;;;;;;;;27.95;56.47;99758.28;5078136;28;19955;-61
2023/05/22 09:43:54;;;;;;;;;;;;;;;27.64;57.73;99763.44;5076516;28;19985;-61
2023/05/22 09:46:20;;;;;;;;;;;;;;;27.86;56.63;99761.97;5076573;28;20356;-62
2023/05/22 09:48:50;;;;;;;;;;;;;;;28.01;56.21;99755.75;5075755;28;19928;-62
2023/05/22 09:51:16;;;;;;;;;;;;;;;28.34;53.71;99763.00;5055900;28;19912;-62
2023/05/22 09:53:42;;;;;;;;;;;;;;;28.21;51.34;99762.63;5068790;28;20372;-62
2023/05/22 09:56:10;;;;;;;;;;;;;;;27.90;53.35;99756.06;5076333;28;19920;-61
2023/05/22 09:58:37;;;;;;;;;;;;;;;27.55;53.75;99760.81;5075358;28;19927;-62
2023/05/22 10:01:03;;;;;;;;;;;;;;;27.38;53.23;99759.03;5058003;28;20027;-62
2023/05/22 10:03:30;;;;;;;;;;;;;;;27.36;54.87;99747.41;5060909;28;19944;-62
2023/05/22 10:05:57;;;;;;;;;;;;;;;27.68;55.49;99753.03;5073539;28;20380;-60
2023/05/22 10:08:23;;;;;;;;;;;;;;;28.47;53.07;99753.44;5076928;28;19912;-62
2023/05/22 10:10:52;;;;;;;;;;;;;;;28.99;49.89;99760.31;5076101;28;19912;-61
2023/05/22 10:13:17;;;;;;;;;;;;;;;29.41;46.88;99745.34;5077121;28;19908;-61
2023/05/22 10:15:42;;;;;;;;;;;;;;;30.24;46.80;99749.31;5078123;28;20469;-61
2023/05/22 10:18:08;;;;;;;;;;;;;;;30.53;46.72;99746.69;5077702;28;19959;-62
2023/05/22 10:20:34;;;;;;;;;;;;;;;31.17;47.26;99733.44;5080240;28;19938;-61
2023/05/22 10:23:01;;;;;;;;;;;;;;;31.15;44.19;99741.00;5078843;28;19940;-62
2023/05/22 10:25:26;;;;;;;;;;;;;;;31.12;44.61;99730.41;5074567;28;19999;-62
2023/05/22 10:27:52;;;;;;;;;;;;;;;31.09;43.77;99733.53;5078812;28;20384;-61
2023/05/22 10:30:20;;;;;;;;;;;;;;;31.83;44.48;99730.59;5074599;28;20002;-62
2023/05/22 10:32:52;;;;;;;;;;;;;;;32.10;41.99;99728.03;5077286;28;19908;-62
2023/05/22 10:35:28;;;;;;;;;;;;;;;32.01;41.63;99728.34;5080018;28;20409;-62
2023/05/22 10:38:16;;;;;;;;;;;;;;;32.54;42.76;99725.13;5075885;28;19917;-62
2023/05/22 10:40:44;;;;;;;;;;;;;;;32.78;42.18;99727.50;5080763;28;20003;-62
2023/05/22 10:43:09;;;;;;;;;;;;;;;33.12;41.33;99723.97;5079917;28;19916;-61
2023/05/22 10:45:35;;;;;;;;;;;;;;;33.34;43.14;99728.38;5078271;28;20372;-62
2023/05/22 10:48:13;;;;;;;;;;;;;;;33.52;39.06;99725.09;5077931;28;19966;-62
2023/05/22 10:50:39;;;;;;;;;;;;;;;33.36;39.67;99713.31;5078266;28;19912;-62
2023/05/22 10:53:18;;;;;;;;;;;;;;;33.09;40.93;99703.16;5078949;28;19963;-62
2023/05/22 10:55:48;;;;;;;;;;;;;;;33.35;41.40;99708.84;5081444;28;19912;-62
2023/05/22 10:58:13;;;;;;;;;;;;;;;33.73;40.27;99705.69;5081033;28;19936;-62
2023/05/22 11:00:39;;;;;;;;;;;;;;;33.39;40.03;99701.84;5080097;28;19927;-61
2023/05/22 11:03:05;;;;;;;;;;;;;;;33.09;40.21;99692.16;5078227;28;19926;-62
2023/05/22 11:05:30;;;;;;;;;;;;;;;33.14;40.11;99683.25;5076391;28;20364;-62
2023/05/22 11:08:08;;;;;;;;;;;;;;;33.60;40.23;99689.06;5078195;28;19908;-62
2023/05/22 11:10:53;;;;;;;;;;;;;;;33.85;39.59;99687.47;5076238;28;19922;-62
2023/05/22 11:13:18;;;;;;;;;;;;;;;34.31;39.06;99689.34;5076903;28;19926;-62
2023/05/22 11:15:47;;;;;;;;;;;;;;;34.66;37.76;99681.78;5077578;28;19994;-62
2023/05/22 11:18:15;;;;;;;;;;;;;;;35.18;37.73;99692.81;5077001;28;19912;-62
2023/05/22 11:20:40;;;;;;;;;;;;;;;35.37;38.12;99686.38;5077552;28;19967;-63
2023/05/22 11:23:06;;;;;;;;;;;;;;;35.83;37.87;99691.81;5074090;28;19959;-62
2023/05/22 11:25:33;;;;;;;;;;;;;;;36.04;37.36;99687.91;5078440;28;19916;-62
2023/05/22 11:28:00;;;;;;;;;;;;;;;36.05;35.78;99684.91;5078319;28;19947;-62
2023/05/22 11:30:27;;;;;;;;;;;;;;;35.93;35.55;99686.69;5076199;28;19920;-62
2023/05/22 11:32:52;;;;;;;;;;;;;;;35.92;36.30;99684.97;5077398;28;19935;-62
2023/05/22 11:35:18;;;;;;;;;;;;;;;36.01;35.35;99683.66;5079629;28;19908;-62
2023/05/22 11:37:44;;;;;;;;;;;;;;;35.41;36.44;99682.16;5079556;28;19924;-62
2023/05/22 11:40:12;;;;;;;;;;;;;;;34.34;37.84;99672.34;5078714;28;19908;-62
2023/05/22 11:42:38;;;;;;;;;;;;;;;34.89;39.08;99668.38;5062220;28;19919;-62
2023/05/22 11:45:04;;;;;;;;;;;;;;;35.22;37.97;99680.28;5078346;28;19916;-63
2023/05/22 11:47:29;;;;;;;;;;;;;;;35.49;36.52;99679.16;5080206;28;19915;-62
2023/05/22 11:49:58;;;;;;;;;;;;;;;35.63;36.70;99675.28;5080410;28;19962;-62
2023/05/22 11:52:24;;;;;;;;;;;;;;;36.31;36.48;99675.59;5081267;28;19916;-63
2023/05/22 11:54:52;;;;;;;;;;;;;;;36.87;35.87;99684.81;5083577;28;19915;-63
2023/05/22 11:57:18;;;;;;;;;;;;;;;36.61;34.21;99679.44;5081096;28;19959;-63
2023/05/22 11:59:46;;;;;;;;;;;;;;;35.82;35.74;99679.03;5082728;28;19916;-63
2023/05/22 12:02:13;;;;;;;;;;;;;;;35.41;36.81;99676.63;5081894;28;20007;-61
2023/05/22 12:04:38;;;;;;;;;;;;;;;35.41;35.59;99676.63;5082158;28;19916;-63
2023/05/22 12:07:04;;;;;;;;;;;;;;;35.35;35.33;99671.94;5082156;28;19923;-62
2023/05/22 12:09:29;;;;;;;;;;;;;;;35.40;34.32;99674.94;5085114;28;20326;-62
2023/05/22 12:11:58;;;;;;;;;;;;;;;35.55;35.14;99672.75;5080194;28;19920;-63
2023/05/22 12:14:26;;;;;;;;;;;;;;;35.80;34.50;99665.41;5060231;28;19917;-62
2023/05/22 12:16:52;;;;;;;;;;;;;;;36.39;34.72;99669.81;5061007;28;19972;-63
2023/05/22 12:19:17;;;;;;;;;;;;;;;36.45;32.72;99674.47;5080103;28;19915;-62
2023/05/22 12:21:43;;;;;;;;;;;;;;;36.36;33.83;99686.91;5085718;28;19920;-63
2023/05/22 12:24:08;;;;;;;;;;;;;;;36.39;33.27;99675.38;5082558;28;19912;-63
2023/05/22 12:26:35;;;;;;;;;;;;;;;36.08;32.97;99675.31;5081596;28;19917;-62
2023/05/22 12:29:01;;;;;;;;;;;;;;;36.39;34.53;99658.72;5064965;28;19912;-63
2023/05/22 12:31:26;;;;;;;;;;;;;;;36.26;33.20;99658.78;5081047;28;19915;-62
2023/05/22 12:33:52;;;;;;;;;;;;;;;36.16;33.42;99659.28;5082713;28;19912;-62
2023/05/22 12:36:18;;;;;;;;;;;;;;;36.32;33.05;99646.81;5082404;28;19919;-63
2023/05/22 12:38:43;;;;;;;;;;;;;;;36.52;33.84;99650.31;5081310;28;19919;-63